createdAt,value
2018-06-20T00:01:27.447Z,101942.93
2018-06-20T00:04:02.621Z,101948.03
2018-06-20T00:06:32.350Z,101945.45
2018-06-20T00:09:01.731Z,101946.47
2018-06-20T00:11:31.138Z,101935.08
2018-06-20T00:14:00.410Z,101941.91
2018-06-20T00:16:29.649Z,101937.19
2018-06-20T00:18:58.932Z,101936.05
2018-06-20T00:21:28.392Z,101943.89
2018-06-20T00:23:57.630Z,101933.16
2018-06-20T00:26:26.909Z,101937.94
2018-06-20T00:28:56.241Z,101930.84
2018-06-20T00:31:25.538Z,101928.85
2018-06-20T00:33:55.072Z,101924.56
2018-06-20T00:36:24.465Z,101925.08
2018-06-20T00:38:53.774Z,101922.28
2018-06-20T00:41:23.016Z,101921.80
2018-06-20T00:43:52.337Z,101918.44
2018-06-20T00:46:21.541Z,101924.19
2018-06-20T00:48:50.802Z,101911.94
2018-06-20T00:51:20.064Z,101917.27
2018-06-20T00:53:49.393Z,101918.98
2018-06-20T00:56:23.079Z,101912.75
2018-06-20T00:58:52.337Z,101913.66
2018-06-20T01:01:22.321Z,101909.05
2018-06-20T01:03:52.301Z,101907.80
2018-06-20T01:06:21.783Z,101908.48
2018-06-20T01:08:57.488Z,101905.05
2018-06-20T01:11:27.432Z,101911.83
2018-06-20T01:13:56.664Z,101902.71
2018-06-20T01:16:26.103Z,101903.47
2018-06-20T01:18:55.497Z,101905.40
2018-06-20T01:21:24.782Z,101900.64
2018-06-20T01:23:54.100Z,101900.06
2018-06-20T01:26:23.347Z,101897.00
2018-06-20T01:28:52.693Z,101893.36
2018-06-20T01:31:22.051Z,101893.94
2018-06-20T01:33:51.300Z,101892.22
2018-06-20T01:36:21.333Z,101901.98
2018-06-20T01:38:50.902Z,101896.05
2018-06-20T01:41:20.255Z,101898.08
2018-06-20T01:43:49.649Z,101890.70
2018-06-20T01:46:19.668Z,101888.01
2018-06-20T01:48:49.182Z,101879.28
2018-06-20T01:51:18.478Z,101888.19
2018-06-20T01:53:47.720Z,101882.06
2018-06-20T01:56:17.213Z,101879.55
2018-06-20T01:58:46.890Z,101875.09
2018-06-20T02:01:16.433Z,101870.20
2018-06-20T02:03:46.067Z,101875.73
2018-06-20T02:06:15.421Z,101874.74
2018-06-20T02:08:45.085Z,101871.78
2018-06-20T02:11:14.837Z,101868.99
2018-06-20T02:13:44.444Z,101864.97
2018-06-20T02:16:14.397Z,101865.55
2018-06-20T02:18:43.851Z,101865.34
2018-06-20T02:21:13.454Z,101874.05
2018-06-20T02:23:42.973Z,101869.55
2018-06-20T02:26:12.790Z,101876.63
2018-06-20T02:28:42.496Z,101867.92
2018-06-20T02:31:12.138Z,101858.26
2018-06-20T02:33:41.439Z,101870.17
2018-06-20T02:36:16.298Z,101870.92
2018-06-20T02:38:45.770Z,101870.44
2018-06-20T02:41:15.519Z,101866.58
2018-06-20T02:43:45.053Z,101867.86
2018-06-20T02:46:14.572Z,101870.50
2018-06-20T02:48:44.032Z,101870.02
2018-06-20T02:51:13.667Z,101869.36
2018-06-20T02:53:43.047Z,101857.63
2018-06-20T02:56:12.452Z,101853.80
2018-06-20T02:58:42.152Z,101849.02
2018-06-20T03:01:11.545Z,101851.88
2018-06-20T03:03:41.099Z,101845.38
2018-06-20T03:06:11.268Z,101843.06
2018-06-20T03:08:40.812Z,101842.41
2018-06-20T03:11:10.507Z,101842.96
2018-06-20T03:13:39.975Z,101847.69
2018-06-20T03:16:09.581Z,101844.41
2018-06-20T03:18:38.958Z,101835.77
2018-06-20T03:21:09.033Z,101844.50
2018-06-20T03:23:38.440Z,101840.58
2018-06-20T03:26:07.802Z,101834.63
2018-06-20T03:28:37.336Z,101838.31
2018-06-20T03:31:07.118Z,101842.83
2018-06-20T03:33:36.471Z,101839.71
2018-06-20T03:36:05.893Z,101848.18
2018-06-20T03:38:35.398Z,101852.16
2018-06-20T03:41:04.763Z,101851.14
2018-06-20T03:43:34.211Z,101849.84
2018-06-20T03:46:03.745Z,101850.11
2018-06-20T03:48:33.259Z,101841.36
2018-06-20T03:51:02.778Z,101839.34
2018-06-20T03:53:32.100Z,101841.59
2018-06-20T03:56:03.289Z,101838.27
2018-06-20T03:58:32.649Z,101832.89
2018-06-20T04:01:02.020Z,101828.82
2018-06-20T04:03:31.749Z,101831.02
2018-06-20T04:06:01.253Z,101831.06
2018-06-20T04:08:30.552Z,101830.31
2018-06-20T04:10:59.872Z,101841.40
2018-06-20T04:13:30.476Z,101837.14
2018-06-20T04:15:59.786Z,101831.49
2018-06-20T04:18:46.596Z,101832.27
2018-06-20T04:21:17.213Z,101836.50
2018-06-20T04:23:46.526Z,101836.35
2018-06-20T04:26:16.247Z,101832.17
2018-06-20T04:28:45.914Z,101831.02
2018-06-20T04:31:15.380Z,101823.33
2018-06-20T04:33:45.146Z,101821.61
2018-06-20T04:36:14.685Z,101816.30
2018-06-20T04:38:44.266Z,101820.96
2018-06-20T04:41:14.062Z,101816.63
2018-06-20T04:43:43.481Z,101816.02
2018-06-20T04:46:12.880Z,101816.23
2018-06-20T04:48:42.395Z,101809.09
2018-06-20T04:51:11.710Z,101816.02
2018-06-20T04:53:41.108Z,101811.83
2018-06-20T04:56:10.687Z,101810.47
2018-06-20T04:58:40.000Z,101812.04
2018-06-20T05:01:09.476Z,101806.14
2018-06-20T05:03:39.045Z,101799.58
2018-06-20T05:06:08.999Z,101796.47
2018-06-20T05:08:38.556Z,101800.53
2018-06-20T05:11:08.028Z,101799.70
2018-06-20T05:13:37.665Z,101793.83
2018-06-20T05:16:07.077Z,101788.28
2018-06-20T05:18:36.593Z,101785.83
2018-06-20T05:21:06.146Z,101783.78
2018-06-20T05:23:35.766Z,101783.52
2018-06-20T05:26:05.604Z,101785.80
2018-06-20T05:28:35.488Z,101779.06
2018-06-20T05:31:05.138Z,101774.28
2018-06-20T05:33:35.422Z,101768.27
2018-06-20T05:36:05.107Z,101767.42
2018-06-20T05:38:35.455Z,101767.28
2018-06-20T05:41:05.190Z,101764.94
2018-06-20T05:43:35.839Z,101755.96
2018-06-20T05:46:05.791Z,101759.16
2018-06-20T05:48:35.561Z,101748.85
2018-06-20T05:51:05.385Z,101749.31
2018-06-20T05:53:34.976Z,101754.84
2018-06-20T05:56:04.768Z,101753.83
2018-06-20T05:58:34.447Z,101751.23
2018-06-20T06:01:03.971Z,101750.12
2018-06-20T06:03:33.888Z,101750.81
2018-06-20T06:06:13.660Z,101747.88
2018-06-20T06:08:44.081Z,101741.06
2018-06-20T06:11:13.667Z,101741.16
2018-06-20T06:13:43.161Z,101742.23
2018-06-20T06:16:13.065Z,101744.22
2018-06-20T06:18:43.011Z,101747.00
2018-06-20T06:21:12.619Z,101747.22
2018-06-20T06:23:42.154Z,101743.49
2018-06-20T06:26:13.925Z,101737.02
2018-06-20T06:28:43.551Z,101743.62
2018-06-20T06:31:13.229Z,101739.84
2018-06-20T06:33:42.809Z,101742.89
2018-06-20T06:36:12.337Z,101747.79
2018-06-20T06:38:41.838Z,101738.99
2018-06-20T06:41:11.169Z,101741.09
2018-06-20T06:43:40.806Z,101746.44
2018-06-20T06:46:10.200Z,101736.02
2018-06-20T06:48:39.579Z,101735.11
2018-06-20T06:51:09.393Z,101735.46
2018-06-20T06:53:38.793Z,101731.61
2018-06-20T06:56:08.255Z,101724.39
2018-06-20T06:58:37.999Z,101729.31
2018-06-20T07:01:08.210Z,101727.91
2018-06-20T07:03:37.874Z,101722.78
2018-06-20T07:06:07.749Z,101728.26
2018-06-20T07:08:37.394Z,101719.92
2018-06-20T07:11:06.957Z,101716.61
2018-06-20T07:13:36.634Z,101710.83
2018-06-20T07:16:06.381Z,101709.92
2018-06-20T07:18:36.341Z,101713.64
2018-06-20T07:21:06.001Z,101706.72
2018-06-20T07:23:35.704Z,101709.34
2018-06-20T07:26:05.390Z,101719.53
2018-06-20T07:28:35.110Z,101713.05
2018-06-20T07:31:04.840Z,101706.81
2018-06-20T07:33:34.455Z,101699.00
2018-06-20T07:36:04.039Z,101691.09
2018-06-20T07:38:33.588Z,101690.72
2018-06-20T07:41:03.103Z,101698.58
2018-06-20T07:43:32.645Z,101692.13
2018-06-20T07:46:02.122Z,101691.54
2018-06-20T07:48:31.543Z,101684.60
2018-06-20T07:51:01.420Z,101684.70
2018-06-20T07:53:31.303Z,101681.36
2018-06-20T07:56:00.703Z,101676.91
2018-06-20T07:58:35.181Z,101678.80
2018-06-20T08:01:09.820Z,101675.14
2018-06-20T08:03:44.703Z,101679.33
2018-06-20T08:06:19.343Z,101671.23
2018-06-20T08:08:55.268Z,101667.74
2018-06-20T08:11:30.050Z,101672.08
2018-06-20T08:14:05.232Z,101662.97
2018-06-20T08:16:40.134Z,101659.64
2018-06-20T08:19:14.905Z,101661.04
2018-06-20T08:21:44.396Z,101662.58
2018-06-20T08:24:13.802Z,101660.98
2018-06-20T08:26:43.686Z,101658.42
2018-06-20T08:29:13.225Z,101662.17
2018-06-20T08:31:42.564Z,101671.20
2018-06-20T08:34:12.376Z,101650.33
2018-06-20T08:36:42.046Z,101645.56
2018-06-20T08:39:11.798Z,101659.23
2018-06-20T08:41:41.495Z,101656.17
2018-06-20T08:44:11.073Z,101651.15
2018-06-20T08:46:40.682Z,101652.52
2018-06-20T08:49:10.509Z,101639.96
2018-06-20T08:51:40.116Z,101645.75
2018-06-20T08:54:09.712Z,101648.47
2018-06-20T08:56:39.551Z,101649.68
2018-06-20T08:59:09.221Z,101651.18
2018-06-20T09:01:38.838Z,101645.57
2018-06-20T09:04:13.764Z,101638.58
2018-06-20T09:06:48.265Z,101646.08
2018-06-20T09:09:26.588Z,101635.88
2018-06-20T09:12:01.905Z,101638.62
2018-06-20T09:14:39.928Z,101631.80
2018-06-20T09:17:14.788Z,101628.03
2018-06-20T09:19:46.235Z,101629.56
2018-06-20T09:22:17.175Z,101627.67
2018-06-20T09:24:47.186Z,101622.19
2018-06-20T09:27:16.912Z,101613.51
2018-06-20T09:29:49.389Z,101615.75
2018-06-20T09:32:18.956Z,101613.67
2018-06-20T09:34:48.264Z,101605.27
2018-06-20T09:37:17.602Z,101598.92
2018-06-20T09:39:47.123Z,101597.86
2018-06-20T09:42:16.638Z,101608.72
2018-06-20T09:44:46.313Z,101606.87
2018-06-20T09:47:15.784Z,101617.01
2018-06-20T09:49:45.446Z,101606.45
2018-06-20T09:52:15.040Z,101598.65
2018-06-20T09:54:44.693Z,101600.79
2018-06-20T09:57:14.608Z,101591.36
2018-06-20T09:59:49.393Z,101589.59
2018-06-20T10:02:24.088Z,101579.58
2018-06-20T10:04:58.999Z,101580.62
2018-06-20T10:07:33.722Z,101578.14
2018-06-20T10:10:09.449Z,101587.29
2018-06-20T10:12:44.123Z,101570.84
2018-06-20T10:15:13.763Z,101571.14
2018-06-20T10:17:43.380Z,101566.38
2018-06-20T10:20:18.424Z,101567.07
2018-06-20T10:22:47.796Z,101563.33
2018-06-20T10:25:17.100Z,101557.98
2018-06-20T10:27:46.810Z,101560.20
2018-06-20T10:30:16.295Z,101557.05
2018-06-20T10:32:45.801Z,101547.34
2018-06-20T10:35:16.253Z,101537.51
2018-06-20T10:37:52.466Z,101545.16
2018-06-20T10:40:22.060Z,101537.06
2018-06-20T10:42:51.391Z,101542.48
2018-06-20T10:45:25.881Z,101531.59
2018-06-20T10:47:55.916Z,101533.09
2018-06-20T10:50:25.204Z,101530.27
2018-06-20T10:52:54.635Z,101525.66
2018-06-20T10:55:24.055Z,101528.39
2018-06-20T10:57:58.736Z,101520.50
2018-06-20T11:00:33.214Z,101530.52
2018-06-20T11:03:11.361Z,101529.83
2018-06-20T11:05:46.058Z,101527.14
2018-06-20T11:08:20.528Z,101524.86
2018-06-20T11:10:55.135Z,101509.16
2018-06-20T11:13:24.595Z,101512.36
2018-06-20T11:15:54.122Z,101508.45
2018-06-20T11:18:23.458Z,101503.95
2018-06-20T11:20:57.771Z,101506.03
2018-06-20T11:23:27.507Z,101500.47
2018-06-20T11:25:56.783Z,101497.64
2018-06-20T11:28:26.365Z,101495.70
2018-06-20T11:30:55.582Z,101502.03
2018-06-20T11:33:26.110Z,101491.77
2018-06-20T11:35:56.448Z,101497.28
2018-06-20T11:38:25.735Z,101491.59
2018-06-20T11:40:55.013Z,101483.08
2018-06-20T11:43:24.265Z,101476.85
2018-06-20T11:45:58.912Z,101476.04
2018-06-20T11:48:28.687Z,101485.34
2018-06-20T11:50:58.271Z,101476.01
2018-06-20T11:53:27.803Z,101476.40
2018-06-20T11:55:57.251Z,101483.48
2018-06-20T11:58:32.902Z,101480.89
2018-06-20T12:01:07.442Z,101476.30
2018-06-20T12:03:41.945Z,101473.94
2018-06-20T12:06:17.101Z,101465.36
2018-06-20T12:08:51.625Z,101455.34
2018-06-20T12:11:26.240Z,101442.80
2018-06-20T12:14:00.790Z,101442.53
2018-06-20T12:16:32.060Z,101440.55
2018-06-20T12:19:06.871Z,101439.66
2018-06-20T12:21:41.648Z,101429.87
2018-06-20T12:24:16.542Z,101440.97
2018-06-20T12:26:51.876Z,101451.72
2018-06-20T12:29:26.765Z,101440.05
2018-06-20T12:32:01.700Z,101429.66
2018-06-20T12:34:36.367Z,101423.48
2018-06-20T12:37:11.363Z,101421.09
2018-06-20T12:39:40.432Z,101412.84
2018-06-20T12:42:15.653Z,101423.77
2018-06-20T12:44:50.442Z,101414.67
2018-06-20T12:47:23.301Z,101412.69
2018-06-20T12:49:56.202Z,101404.61
2018-06-20T12:52:25.530Z,101404.95
2018-06-20T12:54:54.838Z,101401.34
2018-06-20T12:57:24.122Z,101407.64
2018-06-20T12:59:53.457Z,101400.33
2018-06-20T13:02:22.948Z,101403.89
2018-06-20T13:04:52.562Z,101395.30
2018-06-20T13:07:21.977Z,101387.25
2018-06-20T13:09:51.373Z,101393.83
2018-06-20T13:12:20.734Z,101379.79
2018-06-20T13:14:51.550Z,101381.80
2018-06-20T13:17:20.921Z,101382.63
2018-06-20T13:19:50.197Z,101375.50
2018-06-20T13:22:19.760Z,101368.67
2018-06-20T13:24:49.232Z,101369.20
2018-06-20T13:27:24.153Z,101366.33
2018-06-20T13:29:57.596Z,101366.02
2018-06-20T13:32:32.436Z,101365.48
2018-06-20T13:35:07.978Z,101356.00
2018-06-20T13:37:43.369Z,101359.65
2018-06-20T13:40:18.059Z,101353.27
2018-06-20T13:42:52.744Z,101348.83
2018-06-20T13:45:27.363Z,101344.25
2018-06-20T13:48:02.111Z,101348.64
2018-06-20T13:50:31.669Z,101350.53
2018-06-20T13:53:01.454Z,101344.91
2018-06-20T13:55:35.172Z,101349.16
2018-06-20T13:58:04.997Z,101332.55
2018-06-20T14:00:34.541Z,101345.12
2018-06-20T14:03:04.526Z,101343.10
2018-06-20T14:05:34.560Z,101340.12
2018-06-20T14:08:04.348Z,101336.24
2018-06-20T14:10:34.878Z,101341.91
2018-06-20T14:13:04.567Z,101351.39
2018-06-20T14:15:34.618Z,101341.80
2018-06-20T14:18:05.273Z,101333.11
2018-06-20T14:20:40.049Z,101336.00
2018-06-20T14:23:09.701Z,101342.91
2018-06-20T14:25:39.504Z,101332.17
2018-06-20T14:28:09.390Z,101328.82
2018-06-20T14:30:43.909Z,101327.95
2018-06-20T14:33:18.876Z,101328.93
2018-06-20T14:35:54.213Z,101322.05
2018-06-20T14:38:28.847Z,101318.59
2018-06-20T14:41:03.773Z,101318.17
2018-06-20T14:43:38.493Z,101306.59
2018-06-20T14:46:13.432Z,101315.83
2018-06-20T14:48:43.101Z,101307.26
2018-06-20T14:51:13.592Z,101308.20
2018-06-20T14:53:45.433Z,101306.82
2018-06-20T14:56:15.868Z,101302.35
2018-06-20T14:58:45.619Z,101303.09
2018-06-20T15:01:15.306Z,101293.59
2018-06-20T15:03:45.413Z,101299.19
2018-06-20T15:06:16.517Z,101298.02
2018-06-20T15:08:46.022Z,101293.15
2018-06-20T15:11:15.923Z,101281.64
2018-06-20T15:13:46.071Z,101291.63
2018-06-20T15:16:20.942Z,101278.65
2018-06-20T15:18:50.392Z,101280.38
2018-06-20T15:21:19.876Z,101281.39
2018-06-20T15:23:49.911Z,101282.02
2018-06-20T15:26:25.046Z,101274.32
2018-06-20T15:28:59.706Z,101280.95
2018-06-20T15:31:34.660Z,101272.43
2018-06-20T15:34:09.697Z,101273.18
2018-06-20T15:36:44.761Z,101283.53
2018-06-20T15:39:14.519Z,101279.64
2018-06-20T15:41:45.985Z,101276.36
2018-06-20T15:44:17.354Z,101267.13
2018-06-20T15:46:52.184Z,101269.34
2018-06-20T15:49:23.842Z,101277.11
2018-06-20T15:51:54.052Z,101265.94
2018-06-20T15:54:23.589Z,101280.53
2018-06-20T15:56:53.002Z,101267.06
2018-06-20T15:59:22.818Z,101259.64
2018-06-20T16:01:52.661Z,101253.02
2018-06-20T16:04:22.484Z,101253.30
2018-06-20T16:06:52.237Z,101251.57
2018-06-20T16:09:26.903Z,101238.73
2018-06-20T16:11:56.652Z,101244.47
2018-06-20T16:14:26.061Z,101246.61
2018-06-20T16:16:55.471Z,101246.81
2018-06-20T16:19:30.472Z,101247.72
2018-06-20T16:22:05.934Z,101246.25
2018-06-20T16:24:41.324Z,101244.31
2018-06-20T16:27:16.287Z,101233.13
2018-06-20T16:29:51.022Z,101239.69
2018-06-20T16:32:20.461Z,101238.41
2018-06-20T16:34:49.914Z,101236.51
2018-06-20T16:37:19.385Z,101242.59
2018-06-20T16:39:48.701Z,101234.85
2018-06-20T16:42:18.098Z,101236.34
2018-06-20T16:44:47.462Z,101232.55
2018-06-20T16:47:17.025Z,101237.97
2018-06-20T16:49:46.432Z,101241.67
2018-06-20T16:52:15.869Z,101239.89
2018-06-20T16:54:45.469Z,101238.38
2018-06-20T16:57:14.908Z,101233.44
2018-06-20T16:59:44.675Z,101233.78
2018-06-20T17:02:20.631Z,101233.74
2018-06-20T17:04:50.016Z,101228.84
2018-06-20T17:07:19.627Z,101221.05
2018-06-20T17:09:49.726Z,101233.75
2018-06-20T17:12:24.375Z,101229.22
2018-06-20T17:14:59.262Z,101232.09
2018-06-20T17:17:34.695Z,101233.02
2018-06-20T17:20:10.421Z,101236.85
2018-06-20T17:22:45.774Z,101229.23
2018-06-20T17:25:33.565Z,101233.36
2018-06-20T17:28:04.209Z,101232.91
2018-06-20T17:30:34.880Z,101238.50
2018-06-20T17:33:04.770Z,101235.77
2018-06-20T17:35:34.658Z,101244.68
2018-06-20T17:38:04.455Z,101237.56
2018-06-20T17:40:34.537Z,101236.66
2018-06-20T17:43:04.965Z,101242.36
2018-06-20T17:45:35.204Z,101238.70
2018-06-20T17:48:04.966Z,101236.77
2018-06-20T17:50:34.635Z,101231.97
2018-06-20T17:53:04.612Z,101235.94
2018-06-20T17:55:35.508Z,101235.30
2018-06-20T17:58:05.584Z,101230.73
2018-06-20T18:00:40.331Z,101223.47
2018-06-20T18:03:10.786Z,101233.56
2018-06-20T18:05:45.700Z,101223.50
2018-06-20T18:08:20.387Z,101219.29
2018-06-20T18:10:55.152Z,101220.47
2018-06-20T18:13:29.736Z,101216.23
2018-06-20T18:16:04.356Z,101222.14
2018-06-20T18:18:34.715Z,101213.16
2018-06-20T18:21:04.621Z,101211.09
2018-06-20T18:23:35.122Z,101209.61
2018-06-20T18:26:04.942Z,101213.34
2018-06-20T18:28:34.852Z,101208.58
2018-06-20T18:31:05.074Z,101201.81
2018-06-20T18:33:35.121Z,101197.39
2018-06-20T18:36:05.014Z,101200.47
2018-06-20T18:38:35.317Z,101195.89
2018-06-20T18:41:05.158Z,101195.22
2018-06-20T18:43:36.233Z,101194.70
2018-06-20T18:46:06.529Z,101195.05
2018-06-20T18:48:36.475Z,101196.08
2018-06-20T18:51:06.707Z,101184.36
2018-06-20T18:53:36.954Z,101193.70
2018-06-20T18:56:07.020Z,101192.66
2018-06-20T18:58:41.876Z,101197.75
2018-06-20T19:01:16.947Z,101193.69
2018-06-20T19:04:53.549Z,101196.89
2018-06-20T19:07:28.265Z,101195.38
2018-06-20T19:09:58.171Z,101191.11
2018-06-20T19:12:27.449Z,101193.17
2018-06-20T19:14:57.005Z,101192.33
2018-06-20T19:17:26.425Z,101190.63
2018-06-20T19:19:55.830Z,101199.79
2018-06-20T19:22:25.398Z,101211.31
2018-06-20T19:24:55.147Z,101204.84
2018-06-20T19:27:24.453Z,101196.02
2018-06-20T19:29:53.945Z,101197.04
2018-06-20T19:32:27.847Z,101201.80
2018-06-20T19:34:57.514Z,101195.66
2018-06-20T19:37:26.923Z,101195.66
2018-06-20T19:39:56.817Z,101198.71
2018-06-20T19:42:26.419Z,101199.05
2018-06-20T19:44:55.725Z,101202.25
2018-06-20T19:47:25.033Z,101188.84
2018-06-20T19:49:54.382Z,101192.51
2018-06-20T19:52:23.713Z,101194.72
2018-06-20T19:54:53.034Z,101187.41
2018-06-20T19:57:22.376Z,101180.25
2018-06-20T19:59:51.759Z,101188.02
2018-06-20T20:02:21.298Z,101191.55
2018-06-20T20:04:50.843Z,101190.69
2018-06-20T20:07:20.174Z,101176.78
2018-06-20T20:09:49.814Z,101181.19
2018-06-20T20:12:19.230Z,101184.20
2018-06-20T20:14:48.740Z,101182.12
2018-06-20T20:17:18.052Z,101182.80
2018-06-20T20:19:47.389Z,101183.98
2018-06-20T20:22:16.879Z,101174.32
2018-06-20T20:24:46.555Z,101174.31
2018-06-20T20:27:16.000Z,101174.31
2018-06-20T20:29:45.757Z,101180.02
2018-06-20T20:32:15.886Z,101163.69
2018-06-20T20:34:45.459Z,101174.77
2018-06-20T20:37:15.002Z,101173.41
2018-06-20T20:39:45.455Z,101165.77
2018-06-20T20:42:15.109Z,101172.37
2018-06-20T20:44:44.566Z,101163.01
2018-06-20T20:47:14.137Z,101162.66
2018-06-20T20:49:43.767Z,101164.61
2018-06-20T20:52:12.934Z,101163.58
2018-06-20T20:54:42.738Z,101156.45
2018-06-20T20:57:12.524Z,101152.69
2018-06-20T20:59:42.364Z,101151.17
2018-06-20T21:02:12.357Z,101144.20
2018-06-20T21:04:41.709Z,101145.33
2018-06-20T21:07:11.389Z,101147.80
2018-06-20T21:09:41.417Z,101146.44
2018-06-20T21:12:10.942Z,101145.06
2018-06-20T21:14:40.722Z,101141.00
2018-06-20T21:17:10.529Z,101141.51
2018-06-20T21:19:40.053Z,101135.88
2018-06-20T21:22:09.644Z,101132.97
2018-06-20T21:24:39.376Z,101140.50
2018-06-20T21:27:08.864Z,101129.43
2018-06-20T21:29:38.566Z,101131.27
2018-06-20T21:32:08.489Z,101131.19
2018-06-20T21:34:39.237Z,101127.07
2018-06-20T21:37:08.615Z,101133.16
2018-06-20T21:39:38.714Z,101131.08
2018-06-20T21:42:08.299Z,101128.42
2018-06-20T21:44:42.272Z,101123.23
2018-06-20T21:47:15.703Z,101132.87
2018-06-20T21:49:49.321Z,101125.66
2018-06-20T21:52:18.799Z,101125.98
2018-06-20T21:54:48.125Z,101131.41
2018-06-20T21:57:17.457Z,101123.33
2018-06-20T21:59:46.806Z,101119.88
2018-06-20T22:02:16.200Z,101113.95
2018-06-20T22:04:45.561Z,101113.90
2018-06-20T22:07:14.887Z,101113.62
2018-06-20T22:09:44.450Z,101115.91
2018-06-20T22:12:13.754Z,101105.02
2018-06-20T22:14:43.447Z,101102.94
2018-06-20T22:17:12.697Z,101089.38
2018-06-20T22:19:42.087Z,101098.10
2018-06-20T22:22:11.594Z,101087.84
2018-06-20T22:24:41.206Z,101093.91
2018-06-20T22:27:11.023Z,101087.28
2018-06-20T22:29:40.633Z,101079.25
2018-06-20T22:32:10.465Z,101071.80
2018-06-20T22:34:40.314Z,101072.45
2018-06-20T22:37:10.013Z,101076.80
2018-06-20T22:39:39.585Z,101065.59
2018-06-20T22:42:09.345Z,101059.49
2018-06-20T22:44:38.834Z,101061.03
2018-06-20T22:47:08.547Z,101053.80
2018-06-20T22:49:38.263Z,101048.39
2018-06-20T22:52:07.680Z,101044.65
2018-06-20T22:54:37.256Z,101055.43
2018-06-20T22:57:07.126Z,101055.33
2018-06-20T22:59:36.600Z,101049.20
2018-06-20T23:02:06.105Z,101042.12
2018-06-20T23:04:35.756Z,101036.33
2018-06-20T23:07:05.247Z,101052.14
2018-06-20T23:09:34.933Z,101051.03
2018-06-20T23:12:04.569Z,101047.94
2018-06-20T23:14:34.196Z,101047.13
2018-06-20T23:17:03.958Z,101046.47
2018-06-20T23:19:33.551Z,101049.68
2018-06-20T23:22:02.991Z,101041.29
2018-06-20T23:24:32.577Z,101043.69
2018-06-20T23:27:02.110Z,101031.83
2018-06-20T23:29:31.609Z,101032.95
2018-06-20T23:32:01.938Z,101033.11
2018-06-20T23:34:31.361Z,101038.67
2018-06-20T23:37:00.644Z,101029.36
2018-06-20T23:39:34.196Z,101033.58
2018-06-20T23:42:03.696Z,101028.67
2018-06-20T23:44:33.381Z,101026.63
2018-06-20T23:47:04.349Z,101024.20
2018-06-20T23:49:33.858Z,101018.29
2018-06-20T23:52:04.077Z,101010.11
2018-06-20T23:54:34.176Z,101010.50
2018-06-20T23:57:04.069Z,101009.58
2018-06-20T23:59:33.401Z,101009.03
